Time;durP1;ratioP1;P1;durP2;ratioP2;P2;SDS_P1;SDS_P2;PMS_P1;PMS_P2;Temp;Humidity;BMP_temperature;BMP_pressure;BME280_temperature;BME280_humidity;BME280_pressure;Samples;Min_cycle;Max_cycle;Signal;HPM_P1;HPM_P2
2021/03/18 00:00:28;;;;;;;;;;;;;;;21.68;23.81;96809.00;5039384;28;670;-74
2021/03/18 00:02:53;;;;;;;;;;;;;;;21.66;23.94;96811.53;5039222;28;912;-74
2021/03/18 00:05:19;;;;;;;;;;;;;;;22.25;23.16;96814.84;5040917;28;1906;-74
2021/03/18 00:07:45;;;;;;;;;;;;;;;21.23;24.71;96816.22;5043381;28;839;-72
2021/03/18 00:10:10;;;;;;;;;;;;;;;21.78;23.89;96810.56;5026204;28;1174;-72
2021/03/18 00:12:36;;;;;;;;;;;;;;;21.78;23.60;96813.41;5042967;28;586;-73
2021/03/18 00:15:03;;;;;;;;;;;;;;;21.63;23.79;96823.78;5025863;28;1101;-73
2021/03/18 00:17:28;;;;;;;;;;;;;;;22.30;23.06;96825.53;5042902;28;974;-74
2021/03/18 00:19:54;;;;;;;;;;;;;;;23.09;21.81;96810.34;5043035;28;835;-74
2021/03/18 00:22:19;;;;;;;;;;;;;;;22.16;22.91;96809.22;5042759;28;878;-74
2021/03/18 00:24:44;;;;;;;;;;;;;;;22.02;23.21;96815.53;5042999;28;1902;-74
2021/03/18 00:27:11;;;;;;;;;;;;;;;21.63;23.80;96812.47;5042847;28;698;-74
2021/03/18 00:29:37;;;;;;;;;;;;;;;21.70;23.86;96806.47;5042968;28;626;-74
2021/03/18 00:32:02;;;;;;;;;;;;;;;22.21;23.15;96804.97;5042658;28;941;-73
2021/03/18 00:34:28;;;;;;;;;;;;;;;22.08;23.19;96807.97;5042297;28;930;-73
2021/03/18 00:36:53;;;;;;;;;;;;;;;21.85;23.37;96815.88;5042656;28;878;-74
2021/03/18 00:39:19;;;;;;;;;;;;;;;21.79;23.62;96800.81;5042740;28;702;-73
2021/03/18 00:41:44;;;;;;;;;;;;;;;21.70;23.56;96811.34;5042463;28;575;-73
2021/03/18 00:44:09;;;;;;;;;;;;;;;22.20;23.08;96814.72;5025613;28;1325;-73
2021/03/18 00:46:35;;;;;;;;;;;;;;;22.94;22.05;96806.66;5041936;28;1902;-74
2021/03/18 00:49:01;;;;;;;;;;;;;;;22.85;22.09;96802.59;5042113;28;821;-72
2021/03/18 00:51:26;;;;;;;;;;;;;;;22.16;22.96;96803.56;5042647;28;922;-72
2021/03/18 00:53:53;;;;;;;;;;;;;;;21.89;23.52;96807.22;5025703;28;1139;-73
2021/03/18 00:56:20;;;;;;;;;;;;;;;22.05;23.36;96808.91;5042144;28;668;-74
2021/03/18 00:58:50;;;;;;;;;;;;;;;22.02;22.93;96809.84;5025224;28;1370;-73
2021/03/18 01:01:21;;;;;;;;;;;;;;;22.49;22.68;96809.25;5041851;28;940;-74
2021/03/18 01:03:47;;;;;;;;;;;;;;;22.17;22.77;96822.13;5042111;28;843;-73
2021/03/18 01:06:15;;;;;;;;;;;;;;;21.79;23.40;96809.28;5024949;28;1971;-74
2021/03/18 01:08:40;;;;;;;;;;;;;;;21.85;23.65;96812.28;5042236;28;595;-74
2021/03/18 01:11:07;;;;;;;;;;;;;;;22.44;22.48;96811.97;5042013;28;639;-74
2021/03/18 01:13:33;;;;;;;;;;;;;;;21.73;23.74;96814.03;5042272;28;744;-74
2021/03/18 01:16:01;;;;;;;;;;;;;;;22.17;22.77;96810.78;5041120;28;982;-72
2021/03/18 01:18:27;;;;;;;;;;;;;;;21.95;23.38;96798.88;5041689;28;832;-74
2021/03/18 01:20:54;;;;;;;;;;;;;;;21.65;23.66;96798.63;5042052;28;1056;-73
2021/03/18 01:23:19;;;;;;;;;;;;;;;21.66;23.74;96794.56;5024331;28;1270;-73
2021/03/18 01:25:45;;;;;;;;;;;;;;;21.55;24.08;96788.56;5041891;28;1914;-74
2021/03/18 01:28:10;;;;;;;;;;;;;;;22.56;22.52;96796.78;5041609;28;717;-73
2021/03/18 01:30:39;;;;;;;;;;;;;;;22.73;22.04;96795.09;5041397;28;915;-74
2021/03/18 01:33:05;;;;;;;;;;;;;;;22.31;22.78;96798.00;5041339;28;965;-73
2021/03/18 01:35:30;;;;;;;;;;;;;;;21.98;23.02;96807.22;5041656;28;826;-74
2021/03/18 01:37:56;;;;;;;;;;;;;;;22.22;22.80;96812.97;5041396;28;698;-74
2021/03/18 01:40:22;;;;;;;;;;;;;;;21.60;23.75;96824.72;5041566;28;591;-74
2021/03/18 01:42:47;;;;;;;;;;;;;;;22.23;22.90;96825.91;5041291;28;594;-74
2021/03/18 01:45:13;;;;;;;;;;;;;;;22.07;23.00;96834.72;5024404;28;1906;-74
2021/03/18 01:47:45;;;;;;;;;;;;;;;21.90;23.38;96842.00;5040957;28;958;-73
2021/03/18 01:50:11;;;;;;;;;;;;;;;22.03;22.97;96853.94;5041324;28;928;-72
2021/03/18 01:52:36;;;;;;;;;;;;;;;21.18;24.40;96850.81;5041187;28;930;-74
2021/03/18 01:55:03;;;;;;;;;;;;;;;22.05;23.10;96862.75;5041440;28;648;-74
2021/03/18 01:57:28;;;;;;;;;;;;;;;21.53;24.04;96867.53;5041021;28;698;-74
2021/03/18 01:59:54;;;;;;;;;;;;;;;22.10;22.84;96868.56;5041169;28;682;-74
2021/03/18 02:02:19;;;;;;;;;;;;;;;21.76;23.17;96866.88;5023472;28;943;-74
2021/03/18 02:04:45;;;;;;;;;;;;;;;21.04;24.41;96874.06;5040498;28;1906;-74
2021/03/18 02:07:10;;;;;;;;;;;;;;;22.03;23.10;96873.78;5024156;28;949;-73
2021/03/18 02:09:36;;;;;;;;;;;;;;;21.96;23.18;96882.56;5041100;28;599;-74
2021/03/18 02:12:01;;;;;;;;;;;;;;;21.79;23.14;96888.56;5041061;28;607;-74
2021/03/18 02:14:27;;;;;;;;;;;;;;;21.71;23.56;96890.19;5040873;28;1100;-74
2021/03/18 02:16:54;;;;;;;;;;;;;;;20.91;24.59;96905.28;5040412;28;838;-73
2021/03/18 02:19:42;;;;;;;;;;;;;;;21.40;24.14;96912.97;5040287;28;846;-71
2021/03/18 02:22:07;;;;;;;;;;;;;;;21.91;23.10;96905.88;5021935;28;1078;-73
2021/03/18 02:24:36;;;;;;;;;;;;;;;21.83;23.15;96917.53;5040385;28;1966;-74
2021/03/18 02:27:14;;;;;;;;;;;;;;;22.00;23.24;96914.34;5040569;28;675;-73
2021/03/18 02:29:39;;;;;;;;;;;;;;;21.59;23.81;96914.53;5039587;28;734;-74
2021/03/18 02:32:14;;;;;;;;;;;;;;;21.98;23.04;96922.56;5040385;28;943;-74
2021/03/18 02:34:46;;;;;;;;;;;;;;;21.87;23.27;96933.59;5040021;28;904;-73
2021/03/18 02:37:13;;;;;;;;;;;;;;;21.93;23.26;96926.03;5040308;28;630;-74
2021/03/18 02:39:46;;;;;;;;;;;;;;;21.95;23.22;96935.59;5040718;28;654;-73
2021/03/18 02:42:12;;;;;;;;;;;;;;;22.01;22.96;96933.72;5023270;28;651;-72
2021/03/18 02:44:39;;;;;;;;;;;;;;;21.77;23.29;96930.75;5022987;28;1914;-73
2021/03/18 02:47:11;;;;;;;;;;;;;;;21.75;23.41;96926.81;5040207;28;893;-74
2021/03/18 02:49:43;;;;;;;;;;;;;;;21.67;23.72;96932.00;5039746;28;858;-73
2021/03/18 02:52:10;;;;;;;;;;;;;;;21.71;23.55;96923.34;5040085;28;969;-74
2021/03/18 02:54:35;;;;;;;;;;;;;;;21.86;23.19;96921.44;5040175;28;634;-74
2021/03/18 02:57:01;;;;;;;;;;;;;;;22.63;22.37;96932.50;5040005;28;638;-74
2021/03/18 02:59:28;;;;;;;;;;;;;;;21.95;22.82;96920.66;5023191;28;591;-74
2021/03/18 03:01:54;;;;;;;;;;;;;;;21.88;23.25;96935.16;5022526;28;942;-74
2021/03/18 03:04:19;;;;;;;;;;;;;;;20.80;24.88;96931.16;5022552;28;1906;-73
2021/03/18 03:06:44;;;;;;;;;;;;;;;21.39;24.26;96938.88;5040168;28;844;-74
2021/03/18 03:09:10;;;;;;;;;;;;;;;22.73;22.11;96930.41;5023076;28;649;-73
2021/03/18 03:11:36;;;;;;;;;;;;;;;22.35;22.65;96941.09;5022746;28;785;-74
2021/03/18 03:14:01;;;;;;;;;;;;;;;21.93;23.04;96948.69;5040140;28;870;-74
2021/03/18 03:16:27;;;;;;;;;;;;;;;22.19;22.78;96954.81;5022488;28;1094;-74
2021/03/18 03:18:53;;;;;;;;;;;;;;;22.04;22.84;96951.81;5022780;28;943;-73
2021/03/18 03:21:18;;;;;;;;;;;;;;;22.00;23.02;96959.69;5022699;28;898;-73
2021/03/18 03:23:44;;;;;;;;;;;;;;;21.84;23.26;96966.44;5040248;28;646;-72
2021/03/18 03:26:09;;;;;;;;;;;;;;;21.83;23.35;96970.53;5039938;28;1977;-73
2021/03/18 03:28:35;;;;;;;;;;;;;;;21.77;23.58;96969.59;5022646;28;699;-73
2021/03/18 03:31:01;;;;;;;;;;;;;;;21.71;23.32;96972.28;5039881;28;948;-74
2021/03/18 03:33:27;;;;;;;;;;;;;;;21.84;23.42;96963.63;5039268;28;996;-73
2021/03/18 03:35:52;;;;;;;;;;;;;;;21.88;23.37;96974.78;5039723;28;921;-73
2021/03/18 03:38:17;;;;;;;;;;;;;;;21.89;23.34;96970.69;5039500;28;627;-74
2021/03/18 03:40:43;;;;;;;;;;;;;;;21.97;23.31;96978.41;5042381;28;622;-73
2021/03/18 03:43:09;;;;;;;;;;;;;;;22.08;22.89;96966.63;5043595;28;706;-74
2021/03/18 03:45:34;;;;;;;;;;;;;;;22.13;23.03;96973.72;5043570;28;1899;-74
2021/03/18 03:47:59;;;;;;;;;;;;;;;21.40;24.05;96971.56;5043203;28;827;-73
2021/03/18 03:50:26;;;;;;;;;;;;;;;21.99;23.20;96970.22;5043371;28;961;-74
2021/03/18 03:52:58;;;;;;;;;;;;;;;21.82;23.22;96966.94;5043769;28;599;-74
2021/03/18 03:55:30;;;;;;;;;;;;;;;21.20;24.25;96980.47;5026372;28;661;-74
2021/03/18 03:57:57;;;;;;;;;;;;;;;22.38;22.92;96978.22;5043378;28;671;-74
2021/03/18 04:00:22;;;;;;;;;;;;;;;22.67;22.05;96978.50;5042837;28;965;-73
2021/03/18 04:02:48;;;;;;;;;;;;;;;21.99;23.31;96989.28;5025750;28;858;-74
2021/03/18 04:05:14;;;;;;;;;;;;;;;21.74;23.59;96988.31;5026050;28;1894;-73
2021/03/18 04:07:39;;;;;;;;;;;;;;;21.78;23.58;96994.59;5043658;28;666;-74
2021/03/18 04:10:05;;;;;;;;;;;;;;;22.22;22.81;96999.19;5026032;28;686;-74
2021/03/18 04:12:31;;;;;;;;;;;;;;;21.16;24.24;97008.91;5026038;28;667;-73
2021/03/18 04:14:58;;;;;;;;;;;;;;;22.29;22.74;96999.69;5042999;28;1077;-73
2021/03/18 04:17:23;;;;;;;;;;;;;;;22.07;22.96;97004.69;5043036;28;980;-73
2021/03/18 04:19:53;;;;;;;;;;;;;;;21.93;23.26;97005.31;5025730;28;974;-73
2021/03/18 04:22:19;;;;;;;;;;;;;;;22.14;22.72;97010.06;5025913;28;1328;-74
2021/03/18 04:24:44;;;;;;;;;;;;;;;21.94;23.03;97009.72;5025636;28;1906;-74
2021/03/18 04:27:10;;;;;;;;;;;;;;;21.75;23.55;97006.88;5025590;28;679;-73
2021/03/18 04:29:37;;;;;;;;;;;;;;;21.74;23.63;97016.63;5009002;28;1238;-73
2021/03/18 04:32:03;;;;;;;;;;;;;;;21.69;23.66;97025.72;5042738;28;898;-74
2021/03/18 04:34:28;;;;;;;;;;;;;;;21.83;23.50;97004.53;5025697;28;921;-73
2021/03/18 04:36:54;;;;;;;;;;;;;;;21.88;23.22;97025.78;5025507;28;663;-73
2021/03/18 04:39:19;;;;;;;;;;;;;;;21.93;23.23;97017.44;5042501;28;651;-74
2021/03/18 04:41:45;;;;;;;;;;;;;;;21.88;23.33;97020.09;5025598;28;1264;-74
2021/03/18 04:44:11;;;;;;;;;;;;;;;21.84;23.49;97021.03;5024911;28;1080;-73
2021/03/18 04:46:36;;;;;;;;;;;;;;;21.75;23.67;97023.84;5024978;28;1902;-74
2021/03/18 04:49:02;;;;;;;;;;;;;;;21.64;23.78;97019.91;5042562;28;960;-74
2021/03/18 04:51:27;;;;;;;;;;;;;;;21.85;23.38;97022.59;5041338;28;599;-74
2021/03/18 04:53:53;;;;;;;;;;;;;;;22.33;22.88;97017.31;5025599;28;603;-77
2021/03/18 04:56:19;;;;;;;;;;;;;;;22.92;22.11;97033.28;5042262;28;976;-75
2021/03/18 04:58:44;;;;;;;;;;;;;;;22.33;22.54;97033.53;5024820;28;960;-74
2021/03/18 05:01:10;;;;;;;;;;;;;;;22.03;23.08;97035.22;5025380;28;878;-74
2021/03/18 05:03:35;;;;;;;;;;;;;;;21.87;23.48;97049.69;5008831;28;1278;-74
2021/03/18 05:06:01;;;;;;;;;;;;;;;21.88;23.48;97054.09;5025241;28;1999;-74
2021/03/18 05:08:27;;;;;;;;;;;;;;;22.55;22.51;97053.97;5025189;28;649;-74
2021/03/18 05:10:53;;;;;;;;;;;;;;;22.88;21.96;97064.66;5024753;28;934;-74
2021/03/18 05:13:18;;;;;;;;;;;;;;;22.19;22.85;97062.50;5024693;28;986;-74
2021/03/18 05:15:43;;;;;;;;;;;;;;;21.89;23.21;97075.50;5024377;28;1196;-74
2021/03/18 05:18:12;;;;;;;;;;;;;;;21.74;23.72;97075.28;5024445;28;670;-74
2021/03/18 05:20:38;;;;;;;;;;;;;;;22.16;22.88;97086.09;5041665;28;668;-74
2021/03/18 05:23:05;;;;;;;;;;;;;;;22.40;22.62;97078.56;5041810;28;669;-74
2021/03/18 05:25:30;;;;;;;;;;;;;;;22.15;23.08;97090.97;5024849;28;1906;-74
2021/03/18 05:27:56;;;;;;;;;;;;;;;21.85;23.47;97099.06;5042014;28;639;-74
2021/03/18 05:30:22;;;;;;;;;;;;;;;21.65;23.50;97098.69;5041738;28;1004;-74
2021/03/18 05:32:47;;;;;;;;;;;;;;;22.21;22.84;97103.25;5041416;28;960;-74
2021/03/18 05:35:13;;;;;;;;;;;;;;;21.33;24.35;97103.63;5041871;28;1009;-74
2021/03/18 05:37:39;;;;;;;;;;;;;;;21.94;23.39;97114.53;5041801;28;672;-74
2021/03/18 05:40:07;;;;;;;;;;;;;;;21.84;23.31;97117.31;5041586;28;627;-72
2021/03/18 05:42:33;;;;;;;;;;;;;;;21.85;23.59;97120.94;5041382;28;657;-73
2021/03/18 05:44:58;;;;;;;;;;;;;;;22.06;23.36;97131.38;5041300;28;1971;-73
2021/03/18 05:47:24;;;;;;;;;;;;;;;22.43;22.69;97133.50;5041062;28;861;-74
2021/03/18 05:49:49;;;;;;;;;;;;;;;22.28;22.83;97134.13;5041308;28;878;-73
2021/03/18 05:52:14;;;;;;;;;;;;;;;21.82;23.42;97142.50;5024085;28;854;-74
2021/03/18 05:54:41;;;;;;;;;;;;;;;21.63;23.82;97140.84;5023965;28;667;-74
2021/03/18 05:57:07;;;;;;;;;;;;;;;22.04;23.08;97147.28;5024716;28;1238;-74
2021/03/18 05:59:32;;;;;;;;;;;;;;;21.89;23.31;97149.13;5023647;28;956;-72
2021/03/18 06:01:58;;;;;;;;;;;;;;;22.18;22.88;97146.72;5023564;28;947;-73
2021/03/18 06:04:23;;;;;;;;;;;;;;;22.09;22.98;97149.50;5023782;28;893;-73
2021/03/18 06:06:49;;;;;;;;;;;;;;;21.69;23.43;97155.97;5040933;28;1973;-73
2021/03/18 06:09:14;;;;;;;;;;;;;;;21.87;23.65;97160.13;5023685;28;660;-74
2021/03/18 06:11:41;;;;;;;;;;;;;;;21.93;23.30;97163.94;5041661;28;1114;-74
2021/03/18 06:14:07;;;;;;;;;;;;;;;21.76;23.69;97161.38;5041164;28;956;-74
2021/03/18 06:16:32;;;;;;;;;;;;;;;22.11;23.35;97164.00;5040917;28;1187;-74
2021/03/18 06:19:00;;;;;;;;;;;;;;;21.93;23.18;97164.72;5040954;28;981;-74
2021/03/18 06:21:42;;;;;;;;;;;;;;;22.11;23.33;97164.00;5041385;28;678;-74
2021/03/18 06:24:08;;;;;;;;;;;;;;;21.73;23.52;97167.16;5040922;28;642;-73
2021/03/18 06:26:36;;;;;;;;;;;;;;;21.81;23.59;97163.59;5041000;28;1980;-74
2021/03/18 06:29:03;;;;;;;;;;;;;;;21.62;23.80;97167.59;5040629;28;909;-74
2021/03/18 06:31:29;;;;;;;;;;;;;;;22.38;22.69;97170.97;5040798;28;887;-74
2021/03/18 06:33:54;;;;;;;;;;;;;;;22.91;22.17;97165.03;5040742;28;866;-74
2021/03/18 06:36:21;;;;;;;;;;;;;;;22.36;22.94;97168.59;5040749;28;681;-74
2021/03/18 06:38:59;;;;;;;;;;;;;;;22.01;23.43;97170.88;5023589;28;881;-74
2021/03/18 06:41:34;;;;;;;;;;;;;;;21.77;23.69;97179.94;5040757;28;730;-74
2021/03/18 06:44:00;;;;;;;;;;;;;;;21.76;23.77;97174.72;5040442;28;875;-74
2021/03/18 06:46:25;;;;;;;;;;;;;;;22.04;23.50;97181.25;5040211;28;1902;-74
2021/03/18 06:48:51;;;;;;;;;;;;;;;22.27;23.38;97185.59;5040405;28;798;-75
2021/03/18 06:51:17;;;;;;;;;;;;;;;22.20;23.10;97195.19;5040955;28;666;-74
2021/03/18 06:53:42;;;;;;;;;;;;;;;21.79;23.82;97185.91;5040390;28;627;-74
2021/03/18 06:56:31;;;;;;;;;;;;;;;21.73;23.74;97189.81;5040642;28;650;-74
2021/03/18 06:58:56;;;;;;;;;;;;;;;21.87;23.99;97188.47;5040177;28;889;-73
2021/03/18 07:01:23;;;;;;;;;;;;;;;21.41;24.25;97191.06;5040224;28;928;-74
2021/03/18 07:03:48;;;;;;;;;;;;;;;21.92;23.78;97190.69;5040572;28;691;-73
2021/03/18 07:06:24;;;;;;;;;;;;;;;21.98;23.65;97194.47;5040583;28;1961;-74
2021/03/18 07:08:50;;;;;;;;;;;;;;;21.71;24.06;97193.13;5023432;28;938;-74
2021/03/18 07:11:19;;;;;;;;;;;;;;;21.82;24.05;97198.34;5023067;28;1346;-74
2021/03/18 07:13:45;;;;;;;;;;;;;;;21.93;23.54;97197.91;5039591;28;937;-74
2021/03/18 07:16:11;;;;;;;;;;;;;;;22.01;23.47;97199.19;5039473;28;1151;-73
2021/03/18 07:18:36;;;;;;;;;;;;;;;21.99;23.68;97208.16;5040186;28;969;-73
2021/03/18 07:21:07;;;;;;;;;;;;;;;21.95;23.50;97206.72;5040052;28;687;-74
2021/03/18 07:23:37;;;;;;;;;;;;;;;21.92;23.59;97208.47;5040079;28;678;-74
2021/03/18 07:26:13;;;;;;;;;;;;;;;21.83;23.74;97211.25;5040015;28;1910;-74
2021/03/18 07:28:39;;;;;;;;;;;;;;;21.92;23.60;97213.34;5039685;28;862;-74
2021/03/18 07:31:04;;;;;;;;;;;;;;;21.70;24.27;97202.84;5040035;28;847;-73
2021/03/18 07:33:31;;;;;;;;;;;;;;;21.90;23.79;97210.16;5040352;28;1033;-74
2021/03/18 07:35:56;;;;;;;;;;;;;;;21.83;23.95;97211.25;5022759;28;806;-74
2021/03/18 07:38:22;;;;;;;;;;;;;;;21.73;23.90;97212.47;5039927;28;626;-74
2021/03/18 07:40:47;;;;;;;;;;;;;;;22.29;23.18;97217.09;5040060;28;670;-74
2021/03/18 07:43:12;;;;;;;;;;;;;;;22.60;22.94;97211.31;5039526;28;919;-74
2021/03/18 07:45:38;;;;;;;;;;;;;;;22.68;22.86;97212.56;5039518;28;1969;-74
2021/03/18 07:48:03;;;;;;;;;;;;;;;22.17;23.28;97207.44;5039728;28;806;-74
2021/03/18 07:50:30;;;;;;;;;;;;;;;21.88;23.98;97207.03;5040204;28;690;-74
2021/03/18 07:52:56;;;;;;;;;;;;;;;21.84;23.75;97207.94;5022798;28;741;-74
2021/03/18 07:55:21;;;;;;;;;;;;;;;22.27;23.16;97211.88;5022990;28;630;-74
2021/03/18 07:57:50;;;;;;;;;;;;;;;21.75;23.97;97205.06;5039923;28;848;-74
2021/03/18 08:00:17;;;;;;;;;;;;;;;22.01;23.54;97211.31;5039876;28;806;-74
2021/03/18 08:02:43;;;;;;;;;;;;;;;21.78;23.80;97206.97;5039932;28;797;-74
2021/03/18 08:05:08;;;;;;;;;;;;;;;21.89;23.85;97203.72;5039977;28;1981;-74
2021/03/18 08:07:44;;;;;;;;;;;;;;;22.07;23.73;97202.97;5022817;28;850;-74
2021/03/18 08:10:35;;;;;;;;;;;;;;;21.93;23.78;97215.69;5022745;28;1167;-74
2021/03/18 08:13:05;;;;;;;;;;;;;;;21.93;23.78;97209.25;5039056;28;835;-74
2021/03/18 08:15:32;;;;;;;;;;;;;;;21.82;23.85;97212.50;5039453;28;974;-74
2021/03/18 08:18:19;;;;;;;;;;;;;;;21.76;24.14;97218.00;5022307;28;1234;-74
2021/03/18 08:20:47;;;;;;;;;;;;;;;22.30;23.51;97221.50;5032881;28;1974;-74
2021/03/18 08:23:28;;;;;;;;;;;;;;;22.47;23.07;97219.16;5039473;28;674;-74
2021/03/18 08:25:53;;;;;;;;;;;;;;;22.39;23.06;97223.59;5040628;28;1898;-74
2021/03/18 08:28:37;;;;;;;;;;;;;;;22.05;23.61;97228.16;5042721;28;842;-74
2021/03/18 08:31:10;;;;;;;;;;;;;;;21.87;24.00;97220.41;5043126;28;682;-74
2021/03/18 08:33:55;;;;;;;;;;;;;;;21.95;23.78;97220.88;5042948;28;683;-74
2021/03/18 08:36:28;;;;;;;;;;;;;;;21.92;23.89;97224.66;5043141;28;713;-74
2021/03/18 08:39:05;;;;;;;;;;;;;;;21.72;24.04;97223.00;5042870;28;627;-73
2021/03/18 08:41:37;;;;;;;;;;;;;;;21.77;23.96;97230.09;5042761;28;1017;-74
2021/03/18 08:44:20;;;;;;;;;;;;;;;21.77;24.08;97225.22;5042543;28;902;-74
2021/03/18 08:47:01;;;;;;;;;;;;;;;22.05;23.87;97222.50;5042816;28;1965;-74
2021/03/18 08:49:38;;;;;;;;;;;;;;;22.24;23.43;97218.50;5042599;28;725;-74
2021/03/18 08:52:03;;;;;;;;;;;;;;;22.65;22.88;97230.56;5042787;28;674;-73
2021/03/18 08:54:43;;;;;;;;;;;;;;;22.19;23.45;97232.50;5042713;28;650;-74
2021/03/18 08:57:13;;;;;;;;;;;;;;;22.03;23.74;97242.03;5042438;28;961;-74
2021/03/18 08:59:39;;;;;;;;;;;;;;;21.85;24.04;97243.50;5042615;28;915;-74
2021/03/18 09:02:08;;;;;;;;;;;;;;;21.48;24.46;97247.41;5042500;28;980;-74
2021/03/18 09:04:40;;;;;;;;;;;;;;;21.79;23.89;97250.25;5042413;28;1910;-74
2021/03/18 09:07:11;;;;;;;;;;;;;;;21.74;24.23;97248.81;5025320;28;603;-73
2021/03/18 09:09:36;;;;;;;;;;;;;;;21.64;24.11;97255.66;5042348;28;643;-74
2021/03/18 09:12:20;;;;;;;;;;;;;;;22.62;22.89;97257.00;5042419;28;1106;-74
2021/03/18 09:14:46;;;;;;;;;;;;;;;22.95;22.34;97253.59;5041814;28;909;-74
2021/03/18 09:17:12;;;;;;;;;;;;;;;22.48;22.83;97254.75;5042450;28;689;-74
2021/03/18 09:19:37;;;;;;;;;;;;;;;21.81;23.82;97259.88;5025074;28;630;-74
2021/03/18 09:22:03;;;;;;;;;;;;;;;21.84;24.07;97247.59;5042553;28;686;-74
2021/03/18 09:24:35;;;;;;;;;;;;;;;21.83;23.85;97267.88;5042190;28;641;-73
2021/03/18 09:27:04;;;;;;;;;;;;;;;21.89;23.77;97259.56;5041981;28;863;-73
2021/03/18 09:29:29;;;;;;;;;;;;;;;21.89;23.98;97259.56;5041738;28;862;-72
2021/03/18 09:32:08;;;;;;;;;;;;;;;21.96;23.57;97253.63;5041948;28;646;-74
2021/03/18 09:34:34;;;;;;;;;;;;;;;21.90;23.54;97267.59;5042129;28;713;-74
2021/03/18 09:36:59;;;;;;;;;;;;;;;21.79;24.09;97268.03;5041392;28;679;-74
2021/03/18 09:39:25;;;;;;;;;;;;;;;21.78;24.09;97266.44;5042113;28;649;-74
2021/03/18 09:41:51;;;;;;;;;;;;;;;21.74;24.05;97265.78;5041759;28;1047;-74
2021/03/18 09:44:17;;;;;;;;;;;;;;;22.00;23.95;97266.38;5041362;28;812;-74
2021/03/18 09:46:46;;;;;;;;;;;;;;;22.35;23.08;97275.53;5041953;28;1958;-74
2021/03/18 09:49:12;;;;;;;;;;;;;;;22.53;23.09;97285.31;5024570;28;1942;-74
2021/03/18 09:51:38;;;;;;;;;;;;;;;22.39;23.25;97291.59;5041557;28;607;-74
2021/03/18 09:54:05;;;;;;;;;;;;;;;21.93;23.87;97288.56;5041541;28;602;-74
2021/03/18 09:56:35;;;;;;;;;;;;;;;21.69;24.26;97286.22;5041144;28;937;-74
2021/03/18 09:59:02;;;;;;;;;;;;;;;21.91;23.82;97300.31;5041512;28;912;-74
2021/03/18 10:01:39;;;;;;;;;;;;;;;21.43;24.55;97287.63;5041591;28;829;-74
2021/03/18 10:04:05;;;;;;;;;;;;;;;21.83;23.85;97291.34;5024435;28;1151;-74
2021/03/18 10:06:31;;;;;;;;;;;;;;;21.67;24.06;97294.38;5041267;28;1971;-74
2021/03/18 10:09:15;;;;;;;;;;;;;;;21.73;23.97;97281.22;5041529;28;642;-74
2021/03/18 10:11:48;;;;;;;;;;;;;;;21.79;23.89;97290.69;5040914;28;964;-74
2021/03/18 10:14:14;;;;;;;;;;;;;;;22.14;23.47;97284.13;5040916;28;1166;-74
2021/03/18 10:16:39;;;;;;;;;;;;;;;22.63;22.80;97295.44;5041058;28;650;-75
2021/03/18 10:19:05;;;;;;;;;;;;;;;22.75;22.85;97288.84;5041433;28;674;-74
2021/03/18 10:21:31;;;;;;;;;;;;;;;22.22;23.18;97294.66;5041331;28;603;-74
2021/03/18 10:23:56;;;;;;;;;;;;;;;21.93;23.69;97297.06;5023749;28;662;-73
2021/03/18 10:26:22;;;;;;;;;;;;;;;21.66;23.87;97308.97;5041316;28;1910;-74
2021/03/18 10:28:51;;;;;;;;;;;;;;;22.16;23.52;97307.09;5040832;28;622;-74
2021/03/18 10:31:16;;;;;;;;;;;;;;;21.94;23.58;97310.75;5023254;28;1264;-73
2021/03/18 10:33:41;;;;;;;;;;;;;;;22.11;23.52;97316.97;5023326;28;1242;-74
2021/03/18 10:36:07;;;;;;;;;;;;;;;21.97;23.71;97312.66;5023670;28;1345;-74
2021/03/18 10:38:37;;;;;;;;;;;;;;;21.70;24.17;97310.44;5040907;28;654;-74
2021/03/18 10:41:13;;;;;;;;;;;;;;;21.53;24.48;97317.56;5040724;28;682;-74
2021/03/18 10:43:39;;;;;;;;;;;;;;;22.39;23.19;97322.78;5040533;28;687;-74
2021/03/18 10:46:05;;;;;;;;;;;;;;;22.70;22.64;97326.34;5040222;28;1910;-74
2021/03/18 10:48:31;;;;;;;;;;;;;;;22.30;23.31;97330.00;5023250;28;877;-74
2021/03/18 10:51:03;;;;;;;;;;;;;;;22.11;23.35;97328.31;5040023;28;988;-74
2021/03/18 10:53:28;;;;;;;;;;;;;;;21.85;23.68;97336.97;5040363;28;648;-74
2021/03/18 10:55:56;;;;;;;;;;;;;;;21.78;23.97;97323.09;5040401;28;654;-74
2021/03/18 10:58:25;;;;;;;;;;;;;;;21.71;23.96;97323.38;5040754;28;730;-74
2021/03/18 11:01:07;;;;;;;;;;;;;;;21.59;24.26;97329.88;5040166;28;1086;-74
2021/03/18 11:03:36;;;;;;;;;;;;;;;21.63;24.36;97322.03;5040058;28;974;-74
2021/03/18 11:06:15;;;;;;;;;;;;;;;22.23;23.15;97341.63;5040386;28;1971;-74
2021/03/18 11:08:40;;;;;;;;;;;;;;;22.65;22.89;97332.63;5040619;28;677;-74
2021/03/18 11:11:10;;;;;;;;;;;;;;;22.35;23.16;97332.22;5040548;28;646;-74
2021/03/18 11:13:36;;;;;;;;;;;;;;;21.94;23.60;97326.94;5023017;28;786;-73
2021/03/18 11:16:02;;;;;;;;;;;;;;;21.61;24.07;97333.03;5039954;28;991;-71
2021/03/18 11:18:28;;;;;;;;;;;;;;;21.81;23.87;97322.16;5040253;28;890;-73
2021/03/18 11:20:54;;;;;;;;;;;;;;;21.71;24.08;97323.38;5039969;28;849;-74
2021/03/18 11:23:30;;;;;;;;;;;;;;;21.64;23.95;97315.13;5040346;28;622;-73
2021/03/18 11:25:56;;;;;;;;;;;;;;;21.70;24.24;97321.75;5040024;28;1980;-74
2021/03/18 11:28:22;;;;;;;;;;;;;;;22.32;23.57;97327.47;5040313;28;662;-74
2021/03/18 11:30:47;;;;;;;;;;;;;;;22.54;23.14;97327.41;5039760;28;1025;-74
2021/03/18 11:33:14;;;;;;;;;;;;;;;22.76;22.54;97315.16;5039749;28;840;-74
2021/03/18 11:35:40;;;;;;;;;;;;;;;22.25;23.42;97327.75;5039908;28;1008;-74
2021/03/18 11:38:06;;;;;;;;;;;;;;;22.09;23.52;97334.44;5039941;28;607;-74
2021/03/18 11:40:31;;;;;;;;;;;;;;;21.85;23.94;97333.34;5023282;28;587;-74
2021/03/18 11:42:56;;;;;;;;;;;;;;;21.74;23.99;97332.97;5039798;28;710;-74
2021/03/18 11:45:22;;;;;;;;;;;;;;;21.74;24.08;97333.75;5040137;28;1969;-74
2021/03/18 11:47:47;;;;;;;;;;;;;;;21.67;24.13;97331.19;5039939;28;571;-74
2021/03/18 11:50:13;;;;;;;;;;;;;;;21.77;24.17;97332.03;5039488;28;937;-74
2021/03/18 11:52:38;;;;;;;;;;;;;;;21.71;24.05;97331.84;5039596;28;833;-74
2021/03/18 11:55:04;;;;;;;;;;;;;;;21.63;24.25;97322.03;5040128;28;887;-72
2021/03/18 11:57:29;;;;;;;;;;;;;;;21.62;24.21;97331.78;5039865;28;698;-73
2021/03/18 11:59:55;;;;;;;;;;;;;;;22.02;23.73;97336.72;5039810;28;660;-74
2021/03/18 12:02:20;;;;;;;;;;;;;;;22.34;23.45;97339.13;5043681;28;599;-74
2021/03/18 12:04:46;;;;;;;;;;;;;;;22.48;23.19;97340.59;5043612;28;1925;-74
2021/03/18 12:07:11;;;;;;;;;;;;;;;22.27;23.46;97342.25;5043626;28;564;-74
2021/03/18 12:09:37;;;;;;;;;;;;;;;21.95;23.82;97342.69;5043164;28;884;-74
2021/03/18 12:12:02;;;;;;;;;;;;;;;21.42;24.66;97334.94;5043606;28;827;-73
2021/03/18 12:14:28;;;;;;;;;;;;;;;21.82;23.87;97334.28;5043293;28;978;-74
2021/03/18 12:16:53;;;;;;;;;;;;;;;21.82;24.00;97346.41;5043696;28;638;-74
2021/03/18 12:19:18;;;;;;;;;;;;;;;21.65;24.12;97345.00;5043565;28;644;-74
2021/03/18 12:21:44;;;;;;;;;;;;;;;21.97;23.72;97345.88;5043687;28;595;-74
2021/03/18 12:24:09;;;;;;;;;;;;;;;22.26;23.60;97346.34;5043251;28;1116;-74
2021/03/18 12:26:35;;;;;;;;;;;;;;;22.67;22.74;97341.44;5042767;28;1902;-74
2021/03/18 12:29:00;;;;;;;;;;;;;;;22.48;22.88;97351.16;5025950;28;980;-73
2021/03/18 12:31:26;;;;;;;;;;;;;;;22.04;23.62;97339.91;5043375;28;599;-74
2021/03/18 12:33:51;;;;;;;;;;;;;;;21.72;23.93;97341.94;5042929;28;658;-74
2021/03/18 12:36:17;;;;;;;;;;;;;;;21.79;23.76;97335.97;5043152;28;1034;-74
2021/03/18 12:38:43;;;;;;;;;;;;;;;22.11;23.71;97345.31;5042934;28;926;-74
2021/03/18 12:41:08;;;;;;;;;;;;;;;22.54;23.04;97343.63;5043186;28;1028;-74
2021/03/18 12:43:34;;;;;;;;;;;;;;;22.59;22.87;97340.97;5043158;28;681;-74
2021/03/18 12:46:00;;;;;;;;;;;;;;;21.99;23.76;97340.50;5043209;28;1898;-74
2021/03/18 12:48:25;;;;;;;;;;;;;;;21.48;24.45;97338.75;5043052;28;662;-74
2021/03/18 12:50:50;;;;;;;;;;;;;;;21.67;24.37;97344.56;5042767;28;1094;-74
2021/03/18 12:53:16;;;;;;;;;;;;;;;21.50;24.49;97358.09;5042795;28;837;-73
2021/03/18 12:55:43;;;;;;;;;;;;;;;22.27;23.65;97353.56;5042921;28;950;-74
2021/03/18 12:58:08;;;;;;;;;;;;;;;22.53;23.07;97359.03;5042682;28;622;-74
2021/03/18 13:00:34;;;;;;;;;;;;;;;22.27;23.10;97364.13;5042600;28;614;-73
2021/03/18 13:03:00;;;;;;;;;;;;;;;21.84;24.03;97366.53;5042655;28;622;-74
2021/03/18 13:05:25;;;;;;;;;;;;;;;21.65;24.04;97370.47;5042107;28;1966;-74